sensor_id;sensor_type;location;lat;lon;timestamp;temperature;humidity
6206;DHT22;3136;48.788;9.772;2022-09-03T00:01:57;12.80;1.00
6206;DHT22;3136;48.788;9.772;2022-09-03T00:04:30;12.80;1.00
6206;DHT22;3136;48.788;9.772;2022-09-03T00:07:02;12.80;1.00
6206;DHT22;3136;48.788;9.772;2022-09-03T00:09:34;12.80;1.00
6206;DHT22;3136;48.788;9.772;2022-09-03T00:12:15;12.90;1.00
6206;DHT22;3136;48.788;9.772;2022-09-03T00:14:54;12.90;1.00
6206;DHT22;3136;48.788;9.772;2022-09-03T00:17:26;12.90;99.90
6206;DHT22;3136;48.788;9.772;2022-09-03T00:20:05;13.00;99.90
6206;DHT22;3136;48.788;9.772;2022-09-03T00:22:56;13.10;99.90
6206;DHT22;3136;48.788;9.772;2022-09-03T00:25:53;13.00;99.90
6206;DHT22;3136;48.788;9.772;2022-09-03T00:28:25;13.10;99.90
6206;DHT22;3136;48.788;9.772;2022-09-03T00:31:05;13.00;99.90
6206;DHT22;3136;48.788;9.772;2022-09-03T00:33:32;13.00;1.00
6206;DHT22;3136;48.788;9.772;2022-09-03T00:36:04;13.00;1.00
6206;DHT22;3136;48.788;9.772;2022-09-03T00:38:31;13.80;1.00
6206;DHT22;3136;48.788;9.772;2022-09-03T00:46:27;12.90;1.00
6206;DHT22;3136;48.788;9.772;2022-09-03T00:49:24;12.90;1.00
6206;DHT22;3136;48.788;9.772;2022-09-03T00:55:11;12.90;1.00
6206;DHT22;3136;48.788;9.772;2022-09-03T00:57:48;12.90;1.00
6206;DHT22;3136;48.788;9.772;2022-09-03T01:00:18;12.90;1.00
6206;DHT22;3136;48.788;9.772;2022-09-03T01:02:53;12.90;1.00
6206;DHT22;3136;48.788;9.772;2022-09-03T01:08:29;12.90;1.00
6206;DHT22;3136;48.788;9.772;2022-09-03T01:11:19;13.00;1.00
6206;DHT22;3136;48.788;9.772;2022-09-03T01:19:52;13.00;1.00
6206;DHT22;3136;48.788;9.772;2022-09-03T01:30:39;13.20;99.90
6206;DHT22;3136;48.788;9.772;2022-09-03T01:33:26;13.30;99.90
6206;DHT22;3136;48.788;9.772;2022-09-03T01:36:02;13.30;99.90
6206;DHT22;3136;48.788;9.772;2022-09-03T01:38:38;13.40;99.90
6206;DHT22;3136;48.788;9.772;2022-09-03T01:46:41;13.40;99.90
6206;DHT22;3136;48.788;9.772;2022-09-03T01:49:30;13.30;99.90
6206;DHT22;3136;48.788;9.772;2022-09-03T01:52:06;13.50;99.90
6206;DHT22;3136;48.788;9.772;2022-09-03T01:54:57;13.50;99.90
6206;DHT22;3136;48.788;9.772;2022-09-03T02:00:09;13.50;99.90
6206;DHT22;3136;48.788;9.772;2022-09-03T02:02:44;13.50;99.90
6206;DHT22;3136;48.788;9.772;2022-09-03T02:05:23;13.60;99.90
6206;DHT22;3136;48.788;9.772;2022-09-03T02:08:01;13.70;99.90
6206;DHT22;3136;48.788;9.772;2022-09-03T02:10:42;13.70;99.90
6206;DHT22;3136;48.788;9.772;2022-09-03T02:13:12;13.70;99.90
6206;DHT22;3136;48.788;9.772;2022-09-03T02:15:43;13.80;99.90
6206;DHT22;3136;48.788;9.772;2022-09-03T02:18:16;13.70;99.90
6206;DHT22;3136;48.788;9.772;2022-09-03T02:20:43;13.70;99.90
6206;DHT22;3136;48.788;9.772;2022-09-03T02:23:10;13.70;99.90
6206;DHT22;3136;48.788;9.772;2022-09-03T02:25:39;13.70;99.90
6206;DHT22;3136;48.788;9.772;2022-09-03T02:28:06;14.50;99.90
6206;DHT22;3136;48.788;9.772;2022-09-03T02:30:32;13.60;99.90
6206;DHT22;3136;48.788;9.772;2022-09-03T02:32:58;13.70;99.90
6206;DHT22;3136;48.788;9.772;2022-09-03T02:35:24;13.70;99.90
6206;DHT22;3136;48.788;9.772;2022-09-03T02:37:49;13.70;99.90
6206;DHT22;3136;48.788;9.772;2022-09-03T02:40:15;13.70;99.90
6206;DHT22;3136;48.788;9.772;2022-09-03T02:42:42;13.70;99.90
6206;DHT22;3136;48.788;9.772;2022-09-03T02:45:26;13.70;99.90
6206;DHT22;3136;48.788;9.772;2022-09-03T02:47:55;13.70;99.90
6206;DHT22;3136;48.788;9.772;2022-09-03T02:50:22;13.60;99.90
6206;DHT22;3136;48.788;9.772;2022-09-03T02:52:47;13.70;99.90
6206;DHT22;3136;48.788;9.772;2022-09-03T02:55:13;13.70;99.90
6206;DHT22;3136;48.788;9.772;2022-09-03T02:57:40;13.80;99.90
6206;DHT22;3136;48.788;9.772;2022-09-03T03:00:06;13.80;99.90
6206;DHT22;3136;48.788;9.772;2022-09-03T03:02:32;13.80;99.90
6206;DHT22;3136;48.788;9.772;2022-09-03T03:04:58;13.80;99.90
6206;DHT22;3136;48.788;9.772;2022-09-03T03:07:24;13.80;99.90
6206;DHT22;3136;48.788;9.772;2022-09-03T03:09:51;13.80;99.90
6206;DHT22;3136;48.788;9.772;2022-09-03T03:12:16;13.80;99.90
6206;DHT22;3136;48.788;9.772;2022-09-03T03:14:42;13.80;99.90
6206;DHT22;3136;48.788;9.772;2022-09-03T03:17:08;13.70;99.90
6206;DHT22;3136;48.788;9.772;2022-09-03T03:19:33;13.70;99.90
6206;DHT22;3136;48.788;9.772;2022-09-03T03:21:59;13.70;99.90
6206;DHT22;3136;48.788;9.772;2022-09-03T03:24:25;13.60;99.90
6206;DHT22;3136;48.788;9.772;2022-09-03T03:26:53;13.60;99.90
6206;DHT22;3136;48.788;9.772;2022-09-03T03:29:19;13.60;1.00
6206;DHT22;3136;48.788;9.772;2022-09-03T03:31:45;13.60;1.00
6206;DHT22;3136;48.788;9.772;2022-09-03T03:34:10;13.70;1.00
6206;DHT22;3136;48.788;9.772;2022-09-03T03:36:36;13.60;1.00
6206;DHT22;3136;48.788;9.772;2022-09-03T03:39:02;13.70;1.00
6206;DHT22;3136;48.788;9.772;2022-09-03T03:41:32;13.70;1.00
6206;DHT22;3136;48.788;9.772;2022-09-03T03:44:00;13.90;1.00
6206;DHT22;3136;48.788;9.772;2022-09-03T03:46:34;13.80;1.00
6206;DHT22;3136;48.788;9.772;2022-09-03T03:49:00;13.70;1.00
6206;DHT22;3136;48.788;9.772;2022-09-03T03:51:27;13.70;1.00
6206;DHT22;3136;48.788;9.772;2022-09-03T03:53:57;13.80;1.00
6206;DHT22;3136;48.788;9.772;2022-09-03T03:56:24;13.80;1.00
6206;DHT22;3136;48.788;9.772;2022-09-03T03:58:51;13.70;1.00
6206;DHT22;3136;48.788;9.772;2022-09-03T04:01:19;13.70;1.00
6206;DHT22;3136;48.788;9.772;2022-09-03T04:03:46;13.90;1.00
6206;DHT22;3136;48.788;9.772;2022-09-03T04:06:14;13.70;1.00
6206;DHT22;3136;48.788;9.772;2022-09-03T04:08:41;13.80;1.00
6206;DHT22;3136;48.788;9.772;2022-09-03T04:11:09;13.80;99.90
6206;DHT22;3136;48.788;9.772;2022-09-03T04:13:39;13.70;99.90
6206;DHT22;3136;48.788;9.772;2022-09-03T04:16:14;13.60;1.00
6206;DHT22;3136;48.788;9.772;2022-09-03T04:18:40;13.50;1.00
6206;DHT22;3136;48.788;9.772;2022-09-03T04:21:16;13.40;1.00
6206;DHT22;3136;48.788;9.772;2022-09-03T04:23:44;13.40;1.00
6206;DHT22;3136;48.788;9.772;2022-09-03T04:26:12;13.50;1.00
6206;DHT22;3136;48.788;9.772;2022-09-03T04:28:39;13.40;1.00
6206;DHT22;3136;48.788;9.772;2022-09-03T04:31:09;13.50;1.00
6206;DHT22;3136;48.788;9.772;2022-09-03T04:33:35;13.60;1.00
6206;DHT22;3136;48.788;9.772;2022-09-03T04:38:38;13.40;1.00
6206;DHT22;3136;48.788;9.772;2022-09-03T04:41:04;13.40;1.00
6206;DHT22;3136;48.788;9.772;2022-09-03T04:43:30;13.40;1.00
6206;DHT22;3136;48.788;9.772;2022-09-03T04:45:57;13.40;1.00
6206;DHT22;3136;48.788;9.772;2022-09-03T04:48:24;13.40;1.00
6206;DHT22;3136;48.788;9.772;2022-09-03T04:50:49;13.60;1.00
6206;DHT22;3136;48.788;9.772;2022-09-03T04:53:15;13.40;1.00
6206;DHT22;3136;48.788;9.772;2022-09-03T04:55:40;13.50;1.00
6206;DHT22;3136;48.788;9.772;2022-09-03T04:58:06;13.50;1.00
6206;DHT22;3136;48.788;9.772;2022-09-03T05:00:32;13.70;1.00
6206;DHT22;3136;48.788;9.772;2022-09-03T05:03:01;13.50;1.00
6206;DHT22;3136;48.788;9.772;2022-09-03T05:05:32;13.60;1.00
6206;DHT22;3136;48.788;9.772;2022-09-03T05:07:59;13.70;1.00
6206;DHT22;3136;48.788;9.772;2022-09-03T05:10:26;13.70;1.00
6206;DHT22;3136;48.788;9.772;2022-09-03T05:13:18;13.80;1.00
6206;DHT22;3136;48.788;9.772;2022-09-03T05:15:43;13.70;1.00
6206;DHT22;3136;48.788;9.772;2022-09-03T05:18:09;13.70;1.00
6206;DHT22;3136;48.788;9.772;2022-09-03T05:20:35;13.80;1.00
6206;DHT22;3136;48.788;9.772;2022-09-03T05:23:01;13.90;1.00
6206;DHT22;3136;48.788;9.772;2022-09-03T05:25:28;13.90;1.00
6206;DHT22;3136;48.788;9.772;2022-09-03T05:27:56;14.00;1.00
6206;DHT22;3136;48.788;9.772;2022-09-03T05:30:22;14.10;1.00
6206;DHT22;3136;48.788;9.772;2022-09-03T05:32:48;13.50;1.00
6206;DHT22;3136;48.788;9.772;2022-09-03T05:35:14;14.10;1.00
6206;DHT22;3136;48.788;9.772;2022-09-03T05:37:40;14.10;1.00
6206;DHT22;3136;48.788;9.772;2022-09-03T05:40:06;14.20;1.00
6206;DHT22;3136;48.788;9.772;2022-09-03T05:42:35;14.20;1.00
6206;DHT22;3136;48.788;9.772;2022-09-03T05:45:05;14.20;1.00
6206;DHT22;3136;48.788;9.772;2022-09-03T05:47:34;14.30;1.00
6206;DHT22;3136;48.788;9.772;2022-09-03T05:49:59;14.30;1.00
6206;DHT22;3136;48.788;9.772;2022-09-03T05:52:25;14.40;1.00
6206;DHT22;3136;48.788;9.772;2022-09-03T05:54:51;14.50;1.00
6206;DHT22;3136;48.788;9.772;2022-09-03T05:57:16;14.60;1.00
6206;DHT22;3136;48.788;9.772;2022-09-03T05:59:42;14.60;1.00
6206;DHT22;3136;48.788;9.772;2022-09-03T06:02:07;14.70;1.00
6206;DHT22;3136;48.788;9.772;2022-09-03T06:04:33;14.70;1.00
6206;DHT22;3136;48.788;9.772;2022-09-03T06:06:58;14.90;1.00
6206;DHT22;3136;48.788;9.772;2022-09-03T06:09:24;14.90;1.00
6206;DHT22;3136;48.788;9.772;2022-09-03T06:11:50;14.80;1.00
6206;DHT22;3136;48.788;9.772;2022-09-03T06:14:16;14.90;1.00
6206;DHT22;3136;48.788;9.772;2022-09-03T06:16:44;14.90;1.00
6206;DHT22;3136;48.788;9.772;2022-09-03T06:19:11;15.00;1.00
6206;DHT22;3136;48.788;9.772;2022-09-03T06:21:40;15.10;1.00
6206;DHT22;3136;48.788;9.772;2022-09-03T06:24:17;15.00;1.00
6206;DHT22;3136;48.788;9.772;2022-09-03T06:26:43;15.10;99.90
6206;DHT22;3136;48.788;9.772;2022-09-03T06:29:10;15.10;99.90
6206;DHT22;3136;48.788;9.772;2022-09-03T06:31:35;15.20;99.90
6206;DHT22;3136;48.788;9.772;2022-09-03T06:34:01;15.20;99.90
6206;DHT22;3136;48.788;9.772;2022-09-03T06:36:27;15.30;99.90
6206;DHT22;3136;48.788;9.772;2022-09-03T06:38:54;15.30;99.90
6206;DHT22;3136;48.788;9.772;2022-09-03T06:41:23;15.40;99.90
6206;DHT22;3136;48.788;9.772;2022-09-03T06:43:56;15.40;99.90
6206;DHT22;3136;48.788;9.772;2022-09-03T06:46:31;15.50;99.90
6206;DHT22;3136;48.788;9.772;2022-09-03T06:48:56;15.60;99.90
6206;DHT22;3136;48.788;9.772;2022-09-03T06:51:24;15.70;99.90
6206;DHT22;3136;48.788;9.772;2022-09-03T06:53:53;15.70;99.90
6206;DHT22;3136;48.788;9.772;2022-09-03T06:56:23;15.80;99.90
6206;DHT22;3136;48.788;9.772;2022-09-03T06:58:53;15.90;99.90
6206;DHT22;3136;48.788;9.772;2022-09-03T07:01:21;16.00;99.90
6206;DHT22;3136;48.788;9.772;2022-09-03T07:03:52;16.10;99.90
6206;DHT22;3136;48.788;9.772;2022-09-03T07:06:20;16.20;99.90
6206;DHT22;3136;48.788;9.772;2022-09-03T07:08:46;16.20;99.90
6206;DHT22;3136;48.788;9.772;2022-09-03T07:11:14;16.30;99.90
6206;DHT22;3136;48.788;9.772;2022-09-03T07:13:43;16.40;99.90
6206;DHT22;3136;48.788;9.772;2022-09-03T07:16:17;16.60;99.90
6206;DHT22;3136;48.788;9.772;2022-09-03T07:18:44;16.80;99.90
6206;DHT22;3136;48.788;9.772;2022-09-03T07:21:15;17.10;99.90
6206;DHT22;3136;48.788;9.772;2022-09-03T07:23:42;17.20;99.90
6206;DHT22;3136;48.788;9.772;2022-09-03T07:26:11;17.40;99.90
6206;DHT22;3136;48.788;9.772;2022-09-03T07:28:38;17.60;99.90
6206;DHT22;3136;48.788;9.772;2022-09-03T07:31:10;17.90;99.90
6206;DHT22;3136;48.788;9.772;2022-09-03T07:33:39;18.00;99.90
6206;DHT22;3136;48.788;9.772;2022-09-03T07:36:10;18.10;99.90
6206;DHT22;3136;48.788;9.772;2022-09-03T07:38:38;18.20;99.90
6206;DHT22;3136;48.788;9.772;2022-09-03T07:41:06;18.40;99.90
6206;DHT22;3136;48.788;9.772;2022-09-03T07:43:45;18.40;99.90
6206;DHT22;3136;48.788;9.772;2022-09-03T07:46:16;18.50;99.90
6206;DHT22;3136;48.788;9.772;2022-09-03T07:48:51;18.60;99.90
6206;DHT22;3136;48.788;9.772;2022-09-03T07:51:19;18.60;99.90
6206;DHT22;3136;48.788;9.772;2022-09-03T07:53:46;18.60;99.90
6206;DHT22;3136;48.788;9.772;2022-09-03T07:56:12;18.80;99.90
6206;DHT22;3136;48.788;9.772;2022-09-03T07:58:38;18.90;99.90
6206;DHT22;3136;48.788;9.772;2022-09-03T08:01:09;19.00;99.90
6206;DHT22;3136;48.788;9.772;2022-09-03T08:03:35;19.10;99.90
6206;DHT22;3136;48.788;9.772;2022-09-03T08:06:03;19.20;99.90
6206;DHT22;3136;48.788;9.772;2022-09-03T08:08:30;19.30;99.90
6206;DHT22;3136;48.788;9.772;2022-09-03T08:13:34;19.20;99.90
6206;DHT22;3136;48.788;9.772;2022-09-03T08:16:00;19.20;99.90
6206;DHT22;3136;48.788;9.772;2022-09-03T08:18:26;19.20;99.90
6206;DHT22;3136;48.788;9.772;2022-09-03T08:20:58;19.30;99.90
6206;DHT22;3136;48.788;9.772;2022-09-03T08:23:24;19.20;99.90
6206;DHT22;3136;48.788;9.772;2022-09-03T08:25:59;19.30;99.90
6206;DHT22;3136;48.788;9.772;2022-09-03T08:28:25;19.30;99.90
6206;DHT22;3136;48.788;9.772;2022-09-03T08:30:51;19.30;99.90
6206;DHT22;3136;48.788;9.772;2022-09-03T08:33:17;19.30;99.90
6206;DHT22;3136;48.788;9.772;2022-09-03T08:36:02;19.30;99.90
6206;DHT22;3136;48.788;9.772;2022-09-03T08:38:31;19.20;99.90
6206;DHT22;3136;48.788;9.772;2022-09-03T08:41:09;19.30;99.90
6206;DHT22;3136;48.788;9.772;2022-09-03T08:46:33;19.40;99.90
6206;DHT22;3136;48.788;9.772;2022-09-03T08:49:01;19.50;99.90
6206;DHT22;3136;48.788;9.772;2022-09-03T08:51:26;19.60;99.90
6206;DHT22;3136;48.788;9.772;2022-09-03T08:53:53;19.60;99.90
6206;DHT22;3136;48.788;9.772;2022-09-03T08:56:26;19.70;99.90
6206;DHT22;3136;48.788;9.772;2022-09-03T08:58:54;19.80;99.90
6206;DHT22;3136;48.788;9.772;2022-09-03T09:09:48;19.90;99.90
6206;DHT22;3136;48.788;9.772;2022-09-03T09:12:32;19.90;99.90
6206;DHT22;3136;48.788;9.772;2022-09-03T09:16:00;20.00;99.90
6206;DHT22;3136;48.788;9.772;2022-09-03T09:18:19;20.10;99.90
6206;DHT22;3136;48.788;9.772;2022-09-03T09:20:49;20.30;99.90
6206;DHT22;3136;48.788;9.772;2022-09-03T09:23:30;20.40;99.90
6206;DHT22;3136;48.788;9.772;2022-09-03T09:26:01;20.50;99.90
6206;DHT22;3136;48.788;9.772;2022-09-03T09:28:33;20.50;99.90
6206;DHT22;3136;48.788;9.772;2022-09-03T09:31:01;20.60;99.90
6206;DHT22;3136;48.788;9.772;2022-09-03T09:33:29;20.70;99.90
6206;DHT22;3136;48.788;9.772;2022-09-03T09:35:55;21.00;99.90
6206;DHT22;3136;48.788;9.772;2022-09-03T09:38:28;21.30;99.90
6206;DHT22;3136;48.788;9.772;2022-09-03T09:40:54;21.70;99.90
6206;DHT22;3136;48.788;9.772;2022-09-03T09:43:21;21.80;99.90
6206;DHT22;3136;48.788;9.772;2022-09-03T09:45:49;22.00;99.90
6206;DHT22;3136;48.788;9.772;2022-09-03T09:48:28;22.20;99.90
6206;DHT22;3136;48.788;9.772;2022-09-03T09:51:20;22.40;99.90
6206;DHT22;3136;48.788;9.772;2022-09-03T09:53:47;22.50;99.90
6206;DHT22;3136;48.788;9.772;2022-09-03T09:56:24;22.50;99.90
6206;DHT22;3136;48.788;9.772;2022-09-03T09:59:01;22.50;99.90
6206;DHT22;3136;48.788;9.772;2022-09-03T10:01:27;22.50;99.90
6206;DHT22;3136;48.788;9.772;2022-09-03T10:03:58;22.60;99.90
6206;DHT22;3136;48.788;9.772;2022-09-03T10:06:29;22.70;99.90
6206;DHT22;3136;48.788;9.772;2022-09-03T10:09:15;22.90;99.90
6206;DHT22;3136;48.788;9.772;2022-09-03T10:12:01;23.20;99.90
6206;DHT22;3136;48.788;9.772;2022-09-03T10:14:52;23.20;99.90
6206;DHT22;3136;48.788;9.772;2022-09-03T10:17:41;23.30;99.90
6206;DHT22;3136;48.788;9.772;2022-09-03T10:20:21;23.40;99.90
6206;DHT22;3136;48.788;9.772;2022-09-03T10:25:56;24.40;99.90
6206;DHT22;3136;48.788;9.772;2022-09-03T10:28:29;25.20;99.90
6206;DHT22;3136;48.788;9.772;2022-09-03T10:39:13;28.20;99.90
6206;DHT22;3136;48.788;9.772;2022-09-03T10:49:46;30.50;99.90
6206;DHT22;3136;48.788;9.772;2022-09-03T11:00:50;31.70;99.90
6206;DHT22;3136;48.788;9.772;2022-09-03T11:03:41;31.20;99.90
6206;DHT22;3136;48.788;9.772;2022-09-03T11:08:47;29.00;99.90
6206;DHT22;3136;48.788;9.772;2022-09-03T11:11:34;28.20;99.90
6206;DHT22;3136;48.788;9.772;2022-09-03T11:14:07;27.70;99.90
6206;DHT22;3136;48.788;9.772;2022-09-03T11:16:39;28.10;99.90
6206;DHT22;3136;48.788;9.772;2022-09-03T11:19:13;28.00;99.90
6206;DHT22;3136;48.788;9.772;2022-09-03T11:21:40;27.70;99.90
6206;DHT22;3136;48.788;9.772;2022-09-03T11:24:24;27.40;99.90
6206;DHT22;3136;48.788;9.772;2022-09-03T11:29:58;26.80;99.90
6206;DHT22;3136;48.788;9.772;2022-09-03T11:35:13;26.40;99.90
6206;DHT22;3136;48.788;9.772;2022-09-03T11:38:01;25.90;99.90
6206;DHT22;3136;48.788;9.772;2022-09-03T11:40:35;25.60;99.90
6206;DHT22;3136;48.788;9.772;2022-09-03T11:43:13;25.20;99.90
6206;DHT22;3136;48.788;9.772;2022-09-03T11:46:12;25.00;99.90
6206;DHT22;3136;48.788;9.772;2022-09-03T11:48:44;24.70;99.90
6206;DHT22;3136;48.788;9.772;2022-09-03T11:51:30;24.70;99.90
6206;DHT22;3136;48.788;9.772;2022-09-03T11:54:01;24.60;99.90
6206;DHT22;3136;48.788;9.772;2022-09-03T11:56:28;24.40;99.90
6206;DHT22;3136;48.788;9.772;2022-09-03T11:59:19;24.20;99.90
6206;DHT22;3136;48.788;9.772;2022-09-03T12:02:01;23.90;99.90
6206;DHT22;3136;48.788;9.772;2022-09-03T12:04:46;23.70;99.90
6206;DHT22;3136;48.788;9.772;2022-09-03T12:12:55;23.10;99.90
6206;DHT22;3136;48.788;9.772;2022-09-03T12:18:23;22.90;99.90
6206;DHT22;3136;48.788;9.772;2022-09-03T12:25:52;22.40;99.90
6206;DHT22;3136;48.788;9.772;2022-09-03T12:28:21;22.30;99.90
6206;DHT22;3136;48.788;9.772;2022-09-03T12:30:49;22.10;99.90
6206;DHT22;3136;48.788;9.772;2022-09-03T12:33:18;22.00;99.90
6206;DHT22;3136;48.788;9.772;2022-09-03T12:35:55;21.80;99.90
6206;DHT22;3136;48.788;9.772;2022-09-03T12:38:25;21.70;99.90
6206;DHT22;3136;48.788;9.772;2022-09-03T12:40:51;21.60;99.90
6206;DHT22;3136;48.788;9.772;2022-09-03T12:43:19;21.60;99.90
6206;DHT22;3136;48.788;9.772;2022-09-03T12:45:48;21.50;99.90
6206;DHT22;3136;48.788;9.772;2022-09-03T12:48:16;21.40;99.90
6206;DHT22;3136;48.788;9.772;2022-09-03T12:50:44;21.30;99.90
6206;DHT22;3136;48.788;9.772;2022-09-03T12:53:18;21.20;99.90
6206;DHT22;3136;48.788;9.772;2022-09-03T12:55:48;21.10;99.90
6206;DHT22;3136;48.788;9.772;2022-09-03T12:58:21;21.00;99.90
6206;DHT22;3136;48.788;9.772;2022-09-03T13:00:55;20.90;99.90
6206;DHT22;3136;48.788;9.772;2022-09-03T13:03:28;20.70;99.90
6206;DHT22;3136;48.788;9.772;2022-09-03T13:06:01;20.60;99.90
6206;DHT22;3136;48.788;9.772;2022-09-03T13:08:50;20.50;99.90
6206;DHT22;3136;48.788;9.772;2022-09-03T13:11:26;19.70;99.90
6206;DHT22;3136;48.788;9.772;2022-09-03T13:14:07;19.00;99.90
6206;DHT22;3136;48.788;9.772;2022-09-03T13:20:29;17.80;1.00
6206;DHT22;3136;48.788;9.772;2022-09-03T13:23:05;17.50;83.40
6206;DHT22;3136;48.788;9.772;2022-09-03T13:31:37;17.00;69.40
6206;DHT22;3136;48.788;9.772;2022-09-03T13:34:39;16.80;99.90
6206;DHT22;3136;48.788;9.772;2022-09-03T13:37:25;16.70;99.90
6206;DHT22;3136;48.788;9.772;2022-09-03T13:40:02;16.60;99.90
6206;DHT22;3136;48.788;9.772;2022-09-03T13:42:32;16.60;99.90
6206;DHT22;3136;48.788;9.772;2022-09-03T13:45:27;16.50;1.00
6206;DHT22;3136;48.788;9.772;2022-09-03T13:48:13;16.50;1.00
6206;DHT22;3136;48.788;9.772;2022-09-03T13:53:48;16.50;1.00
6206;DHT22;3136;48.788;9.772;2022-09-03T13:56:28;16.50;1.00
6206;DHT22;3136;48.788;9.772;2022-09-03T13:59:16;16.60;1.00
6206;DHT22;3136;48.788;9.772;2022-09-03T14:10:51;16.80;1.00
6206;DHT22;3136;48.788;9.772;2022-09-03T14:16:23;17.10;1.00
6206;DHT22;3136;48.788;9.772;2022-09-03T14:19:02;17.30;1.00
6206;DHT22;3136;48.788;9.772;2022-09-03T14:21:55;17.40;1.00
6206;DHT22;3136;48.788;9.772;2022-09-03T14:26:57;17.40;1.00
6206;DHT22;3136;48.788;9.772;2022-09-03T14:29:29;17.50;1.00
6206;DHT22;3136;48.788;9.772;2022-09-03T14:32:18;17.60;1.00
6206;DHT22;3136;48.788;9.772;2022-09-03T14:35:12;17.70;1.00
6206;DHT22;3136;48.788;9.772;2022-09-03T14:45:19;18.40;1.00
6206;DHT22;3136;48.788;9.772;2022-09-03T14:47:50;18.50;99.90
6206;DHT22;3136;48.788;9.772;2022-09-03T15:05:41;18.30;99.90
6206;DHT22;3136;48.788;9.772;2022-09-03T15:11:02;18.60;1.00
6206;DHT22;3136;48.788;9.772;2022-09-03T15:16:52;18.90;99.90
6206;DHT22;3136;48.788;9.772;2022-09-03T15:19:50;19.00;99.90
6206;DHT22;3136;48.788;9.772;2022-09-03T15:30:34;18.60;1.00
6206;DHT22;3136;48.788;9.772;2022-09-03T15:35:56;18.30;99.90
6206;DHT22;3136;48.788;9.772;2022-09-03T15:41:45;18.20;1.00
6206;DHT22;3136;48.788;9.772;2022-09-03T15:43:48;18.10;8.40
6206;DHT22;3136;48.788;9.772;2022-09-03T15:46:48;18.10;1.00
6206;DHT22;3136;48.788;9.772;2022-09-03T15:49:43;18.00;1.00
6206;DHT22;3136;48.788;9.772;2022-09-03T15:55:14;18.10;99.90
6206;DHT22;3136;48.788;9.772;2022-09-03T16:01:00;18.30;99.90
6206;DHT22;3136;48.788;9.772;2022-09-03T16:08:58;18.30;1.00
6206;DHT22;3136;48.788;9.772;2022-09-03T16:14:29;18.30;99.90
6206;DHT22;3136;48.788;9.772;2022-09-03T16:17:21;18.40;8.00
6206;DHT22;3136;48.788;9.772;2022-09-03T16:20:16;18.40;1.00
6206;DHT22;3136;48.788;9.772;2022-09-03T16:22:48;18.40;1.00
6206;DHT22;3136;48.788;9.772;2022-09-03T16:25:19;18.30;99.90
6206;DHT22;3136;48.788;9.772;2022-09-03T16:27:51;18.30;99.90
6206;DHT22;3136;48.788;9.772;2022-09-03T16:36:17;18.10;1.00
6206;DHT22;3136;48.788;9.772;2022-09-03T16:41:49;18.10;1.00
6206;DHT22;3136;48.788;9.772;2022-09-03T16:47:17;18.10;1.00
6206;DHT22;3136;48.788;9.772;2022-09-03T16:49:50;18.00;99.90
6206;DHT22;3136;48.788;9.772;2022-09-03T16:53:12;18.00;99.90
6206;DHT22;3136;48.788;9.772;2022-09-03T16:56:10;17.90;1.00
6206;DHT22;3136;48.788;9.772;2022-09-03T16:58:58;17.90;99.90
6206;DHT22;3136;48.788;9.772;2022-09-03T17:01:39;17.80;1.00
6206;DHT22;3136;48.788;9.772;2022-09-03T17:04:30;17.80;99.90
6206;DHT22;3136;48.788;9.772;2022-09-03T17:07:06;17.70;99.90
6206;DHT22;3136;48.788;9.772;2022-09-03T17:09:52;17.70;1.00
6206;DHT22;3136;48.788;9.772;2022-09-03T17:12:38;17.60;99.90
6206;DHT22;3136;48.788;9.772;2022-09-03T17:23:42;17.40;44.00
6206;DHT22;3136;48.788;9.772;2022-09-03T17:45:48;17.10;1.00
6206;DHT22;3136;48.788;9.772;2022-09-03T17:48:37;17.00;1.00
6206;DHT22;3136;48.788;9.772;2022-09-03T17:51:16;17.00;1.00
6206;DHT22;3136;48.788;9.772;2022-09-03T17:54:05;16.90;1.00
6206;DHT22;3136;48.788;9.772;2022-09-03T18:05:18;16.70;1.00
6206;DHT22;3136;48.788;9.772;2022-09-03T18:18:27;16.60;1.00
6206;DHT22;3136;48.788;9.772;2022-09-03T18:20:58;16.60;1.00
6206;DHT22;3136;48.788;9.772;2022-09-03T18:23:51;16.60;1.00
6206;DHT22;3136;48.788;9.772;2022-09-03T18:26:42;16.40;1.00
6206;DHT22;3136;48.788;9.772;2022-09-03T18:29:30;16.60;1.00
6206;DHT22;3136;48.788;9.772;2022-09-03T18:32:15;16.50;1.00
6206;DHT22;3136;48.788;9.772;2022-09-03T18:34:59;16.50;1.00
6206;DHT22;3136;48.788;9.772;2022-09-03T18:37:43;16.50;1.00
6206;DHT22;3136;48.788;9.772;2022-09-03T18:40:35;16.40;1.00
6206;DHT22;3136;48.788;9.772;2022-09-03T18:43:57;16.50;1.00
6206;DHT22;3136;48.788;9.772;2022-09-03T19:01:47;16.30;1.00
6206;DHT22;3136;48.788;9.772;2022-09-03T19:04:49;16.30;1.00
6206;DHT22;3136;48.788;9.772;2022-09-03T19:07:46;16.30;1.00
6206;DHT22;3136;48.788;9.772;2022-09-03T19:14:12;16.30;1.00
6206;DHT22;3136;48.788;9.772;2022-09-03T19:17:06;16.30;1.00
6206;DHT22;3136;48.788;9.772;2022-09-03T19:19:56;16.20;1.00
6206;DHT22;3136;48.788;9.772;2022-09-03T19:22:44;16.20;1.00
6206;DHT22;3136;48.788;9.772;2022-09-03T19:25:29;16.30;1.00
6206;DHT22;3136;48.788;9.772;2022-09-03T19:28:25;16.10;1.00
6206;DHT22;3136;48.788;9.772;2022-09-03T19:37:36;16.00;1.00
6206;DHT22;3136;48.788;9.772;2022-09-03T19:52:51;15.80;1.00
6206;DHT22;3136;48.788;9.772;2022-09-03T19:55:57;15.70;1.00
6206;DHT22;3136;48.788;9.772;2022-09-03T19:58:46;15.70;1.00
6206;DHT22;3136;48.788;9.772;2022-09-03T20:01:34;15.60;1.00
6206;DHT22;3136;48.788;9.772;2022-09-03T20:04:31;15.60;1.00
6206;DHT22;3136;48.788;9.772;2022-09-03T20:07:16;15.50;1.00
6206;DHT22;3136;48.788;9.772;2022-09-03T20:10:03;15.50;1.00
6206;DHT22;3136;48.788;9.772;2022-09-03T20:13:13;15.50;1.00
6206;DHT22;3136;48.788;9.772;2022-09-03T20:21:19;15.40;1.00
6206;DHT22;3136;48.788;9.772;2022-09-03T20:32:45;15.40;1.00
6206;DHT22;3136;48.788;9.772;2022-09-03T20:55:17;15.50;1.00
6206;DHT22;3136;48.788;9.772;2022-09-03T20:57:51;15.50;1.00
6206;DHT22;3136;48.788;9.772;2022-09-03T21:00:20;15.50;1.00
6206;DHT22;3136;48.788;9.772;2022-09-03T21:05:44;15.50;1.00
6206;DHT22;3136;48.788;9.772;2022-09-03T21:08:43;15.50;1.00
6206;DHT22;3136;48.788;9.772;2022-09-03T21:11:34;15.50;1.00
6206;DHT22;3136;48.788;9.772;2022-09-03T21:14:16;15.60;1.00
6206;DHT22;3136;48.788;9.772;2022-09-03T21:19:41;15.50;1.00
6206;DHT22;3136;48.788;9.772;2022-09-03T21:22:15;15.50;1.00
6206;DHT22;3136;48.788;9.772;2022-09-03T21:27:15;15.40;1.00
6206;DHT22;3136;48.788;9.772;2022-09-03T21:30:01;15.40;1.00
6206;DHT22;3136;48.788;9.772;2022-09-03T21:32:34;15.40;1.00
6206;DHT22;3136;48.788;9.772;2022-09-03T21:37:34;15.50;1.00
6206;DHT22;3136;48.788;9.772;2022-09-03T21:40:00;15.30;1.00
6206;DHT22;3136;48.788;9.772;2022-09-03T21:42:36;15.30;1.00
6206;DHT22;3136;48.788;9.772;2022-09-03T21:47:50;15.20;1.00
6206;DHT22;3136;48.788;9.772;2022-09-03T21:50:27;15.20;1.00
6206;DHT22;3136;48.788;9.772;2022-09-03T21:53:15;15.10;1.00
6206;DHT22;3136;48.788;9.772;2022-09-03T21:59:10;15.00;1.00
6206;DHT22;3136;48.788;9.772;2022-09-03T22:02:02;14.90;1.00
6206;DHT22;3136;48.788;9.772;2022-09-03T22:04:31;14.90;1.00
6206;DHT22;3136;48.788;9.772;2022-09-03T22:07:18;14.80;1.00
6206;DHT22;3136;48.788;9.772;2022-09-03T22:09:52;14.70;1.00
6206;DHT22;3136;48.788;9.772;2022-09-03T22:12:31;14.70;1.00
6206;DHT22;3136;48.788;9.772;2022-09-03T22:15:00;14.70;1.00
6206;DHT22;3136;48.788;9.772;2022-09-03T22:19:52;14.70;1.00
6206;DHT22;3136;48.788;9.772;2022-09-03T22:22:38;14.70;1.00
6206;DHT22;3136;48.788;9.772;2022-09-03T22:25:16;14.70;1.00
6206;DHT22;3136;48.788;9.772;2022-09-03T22:27:52;14.70;1.00
6206;DHT22;3136;48.788;9.772;2022-09-03T22:30:39;14.60;1.00
6206;DHT22;3136;48.788;9.772;2022-09-03T22:52:27;14.80;1.00